Time;durP1;ratioP1;P1;durP2;ratioP2;P2;SDS_P1;SDS_P2;PMS_P1;PMS_P2;Temp;Humidity;BMP_temperature;BMP_pressure;BME280_temperature;BME280_humidity;BME280_pressure;Samples;Min_cycle;Max_cycle;Signal;HPM_P1;HPM_P2
2021/01/31 00:00:20;;;;;;;14.53;8.13;;;-0.10;1.00;;;;;;5003330;28;20919;-75
2021/01/31 00:02:47;;;;;;;12.20;8.10;;;-0.10;1.00;;;;;;4989411;28;21949;-75
2021/01/31 00:05:13;;;;;;;14.03;8.30;;;-0.10;1.00;;;;;;4974481;28;20811;-76
2021/01/31 00:07:39;;;;;;;10.60;7.97;;;-0.10;1.00;;;;;;4990759;28;20634;-76
2021/01/31 00:10:06;;;;;;;11.77;7.50;;;0.00;1.00;;;;;;4991405;28;20746;-76
2021/01/31 00:12:32;;;;;;;10.27;7.53;;;0.00;1.00;;;;;;4992911;28;20483;-76
2021/01/31 00:14:58;;;;;;;15.17;9.30;;;-0.10;1.00;;;;;;4988448;28;20452;-75
2021/01/31 00:17:24;;;;;;;14.77;8.80;;;-0.10;1.00;;;;;;4990974;28;20452;-75
2021/01/31 00:19:49;;;;;;;13.57;7.77;;;-0.20;1.00;;;;;;4969138;28;20629;-76
2021/01/31 00:22:15;;;;;;;13.73;9.40;;;-0.10;1.00;;;;;;4993483;28;20208;-76
2021/01/31 00:24:41;;;;;;;14.00;8.63;;;-0.10;1.00;;;;;;4990441;28;20194;-75
2021/01/31 00:27:07;;;;;;;11.00;8.10;;;-0.10;1.00;;;;;;4992105;28;20442;-76
2021/01/31 00:29:32;;;;;;;11.90;9.20;;;-0.10;1.00;;;;;;4974819;28;20251;-76
2021/01/31 00:31:58;;;;;;;11.73;8.60;;;-0.20;1.00;;;;;;4990400;28;20551;-76
2021/01/31 00:34:24;;;;;;;10.30;7.40;;;-0.20;1.00;;;;;;4991717;28;20200;-76
2021/01/31 00:36:50;;;;;;;12.87;8.33;;;-0.20;1.00;;;;;;4992759;28;20268;-76
2021/01/31 00:39:16;;;;;;;11.73;9.17;;;-0.20;1.00;;;;;;4987894;28;20465;-76
2021/01/31 00:41:43;;;;;;;11.30;8.37;;;-0.20;1.00;;;;;;4989983;28;21119;-76
2021/01/31 00:44:09;;;;;;;14.70;9.37;;;-0.20;1.00;;;;;;4988694;28;20445;-76
2021/01/31 00:46:37;;;;;;;11.57;7.43;;;-0.20;1.00;;;;;;4988545;28;20464;-75
2021/01/31 00:49:04;;;;;;;12.57;8.53;;;-0.20;1.00;;;;;;4990410;28;20448;-75
2021/01/31 00:51:30;;;;;;;13.17;8.07;;;-0.20;1.00;;;;;;4988643;28;20478;-76
2021/01/31 00:53:56;;;;;;;10.43;7.93;;;-0.30;1.00;;;;;;4994145;28;20495;-76
2021/01/31 00:56:22;;;;;;;12.90;8.23;;;-0.30;1.00;;;;;;4970726;28;20441;-76
2021/01/31 00:58:48;;;;;;;11.20;8.50;;;-0.20;1.00;;;;;;4987967;28;20460;-76
2021/01/31 01:01:15;;;;;;;11.70;8.13;;;-0.30;1.00;;;;;;4971887;28;20262;-76
2021/01/31 01:03:41;;;;;;;11.07;8.10;;;-0.20;1.00;;;;;;4971884;28;20459;-76
2021/01/31 01:06:09;;;;;;;11.93;8.60;;;-0.30;1.00;;;;;;4984247;28;20442;-76
2021/01/31 01:08:35;;;;;;;17.80;11.37;;;-0.40;1.00;;;;;;4991060;28;20485;-75
2021/01/31 01:11:01;;;;;;;14.07;9.30;;;-0.30;1.00;;;;;;4982827;28;20366;-76
2021/01/31 01:13:28;;;;;;;13.67;9.80;;;-0.30;1.00;;;;;;4988337;28;20683;-76
2021/01/31 01:15:54;;;;;;;11.20;8.30;;;-0.30;1.00;;;;;;4967245;28;20444;-76
2021/01/31 01:18:20;;;;;;;12.47;8.20;;;-0.40;1.00;;;;;;4992903;28;20480;-76
2021/01/31 01:20:46;;;;;;;12.70;8.60;;;-0.40;1.00;;;;;;4990072;28;20477;-76
2021/01/31 01:23:12;;;;;;;11.90;8.27;;;-0.30;1.00;;;;;;4989359;28;20479;-76
2021/01/31 01:25:38;;;;;;;16.80;8.97;;;-0.40;1.00;;;;;;4990432;28;20456;-76
2021/01/31 01:28:04;;;;;;;13.77;8.70;;;-0.40;1.00;;;;;;4974183;28;20700;-76
2021/01/31 01:30:31;;;;;;;11.37;7.90;;;-0.40;1.00;;;;;;4991553;28;20268;-76
2021/01/31 01:32:58;;;;;;;10.17;6.80;;;-0.40;1.00;;;;;;4988853;28;20437;-76
2021/01/31 01:35:25;;;;;;;10.07;7.70;;;-0.40;1.00;;;;;;4976804;28;20863;-76
2021/01/31 01:37:52;;;;;;;11.13;7.40;;;-0.40;1.00;;;;;;4990074;28;20477;-75
2021/01/31 01:40:26;;;;;;;11.50;8.30;;;-0.40;1.00;;;;;;4991913;28;20467;-75
2021/01/31 01:42:52;;;;;;;15.27;8.87;;;-0.40;1.00;;;;;;4993675;28;20472;-76
2021/01/31 01:45:20;;;;;;;11.20;7.73;;;-0.40;1.00;;;;;;4989972;28;20481;-76
2021/01/31 01:47:48;;;;;;;13.10;8.00;;;-0.40;1.00;;;;;;4993050;28;20474;-76
2021/01/31 01:50:33;;;;;;;12.20;8.00;;;-0.40;1.00;;;;;;5000627;28;20456;-76
2021/01/31 01:53:00;;;;;;;11.10;7.37;;;-0.40;1.00;;;;;;5001277;28;20469;-75
2021/01/31 01:55:31;;;;;;;10.23;6.70;;;-0.40;1.00;;;;;;4996143;28;20956;-75
2021/01/31 01:58:07;;;;;;;12.40;7.77;;;-0.40;1.00;;;;;;4999615;28;20458;-75
2021/01/31 02:00:34;;;;;;;10.63;7.23;;;-0.40;1.00;;;;;;5000755;28;20460;-76
2021/01/31 02:03:08;;;;;;;10.37;8.10;;;-0.50;1.00;;;;;;4995082;28;20516;-75
2021/01/31 02:05:35;;;;;;;10.70;7.57;;;-0.50;1.00;;;;;;4999485;28;20444;-75
2021/01/31 02:08:00;;;;;;;9.30;6.90;;;-0.50;1.00;;;;;;4994210;28;20916;-75
2021/01/31 02:10:26;;;;;;;12.77;8.63;;;-0.50;1.00;;;;;;4996140;28;20447;-75
2021/01/31 02:12:57;;;;;;;11.67;8.30;;;-0.50;1.00;;;;;;4995454;28;20756;-75
2021/01/31 02:15:23;;;;;;;11.47;7.30;;;-0.50;1.00;;;;;;4994117;28;21193;-76
2021/01/31 02:18:00;;;;;;;11.67;7.30;;;-0.60;1.00;;;;;;4995746;28;20463;-75
2021/01/31 02:20:57;;;;;;;14.00;7.53;;;-0.60;1.00;;;;;;4995184;28;20446;-76
2021/01/31 02:23:56;;;;;;;10.57;7.30;;;-0.60;1.00;;;;;;4996509;28;20465;-75
2021/01/31 02:26:42;;;;;;;12.27;7.77;;;-0.70;1.00;;;;;;4992490;28;20543;-75
2021/01/31 02:29:26;;;;;;;9.10;7.23;;;-0.60;1.00;;;;;;4989592;28;20484;-75
2021/01/31 02:32:08;;;;;;;10.57;6.70;;;-0.70;1.00;;;;;;4994590;28;20455;-76
2021/01/31 02:35:11;;;;;;;10.67;7.80;;;-0.70;1.00;;;;;;4991578;28;21273;-76
2021/01/31 02:37:43;;;;;;;11.47;7.60;;;-0.70;1.00;;;;;;4991965;28;21001;-75
2021/01/31 02:40:13;;;;;;;10.33;7.30;;;-0.80;1.00;;;;;;4990106;28;20447;-75
2021/01/31 02:43:02;;;;;;;12.83;8.60;;;-0.70;1.00;;;;;;4991108;28;20907;-76
2021/01/31 02:45:36;;;;;;;13.60;8.73;;;-0.70;1.00;;;;;;4990926;28;20451;-75
2021/01/31 02:48:11;;;;;;;10.03;6.83;;;-0.70;1.00;;;;;;4988406;28;20850;-75
2021/01/31 02:50:45;;;;;;;10.00;7.53;;;-0.80;1.00;;;;;;4992703;28;20445;-75
2021/01/31 02:53:30;;;;;;;11.70;8.00;;;-0.80;1.00;;;;;;4993681;28;20508;-75
2021/01/31 02:56:01;;;;;;;13.70;8.20;;;-0.80;1.00;;;;;;4990152;28;20877;-75
2021/01/31 02:58:45;;;;;;;12.33;8.00;;;-0.80;1.00;;;;;;4990733;28;20449;-75
2021/01/31 03:01:20;;;;;;;11.70;7.40;;;-0.80;1.00;;;;;;4992053;28;20479;-76
2021/01/31 03:03:56;;;;;;;13.00;7.77;;;-0.90;1.00;;;;;;4993333;28;20466;-75
2021/01/31 03:06:28;;;;;;;11.90;7.53;;;-1.00;1.00;;;;;;4991763;28;20821;-75
2021/01/31 03:09:06;;;;;;;10.87;6.57;;;-1.00;1.00;;;;;;4988947;28;20624;-75
2021/01/31 03:11:48;;;;;;;13.40;7.67;;;-1.00;1.00;;;;;;4992392;28;20447;-75
2021/01/31 03:14:45;;;;;;;12.17;6.97;;;-1.10;1.00;;;;;;4997698;28;20792;-75
2021/01/31 03:17:15;;;;;;;11.60;7.33;;;-1.10;1.00;;;;;;4993180;28;20876;-75
2021/01/31 03:20:08;;;;;;;12.70;7.47;;;-1.10;1.00;;;;;;4992029;28;20464;-75
2021/01/31 03:22:58;;;;;;;12.47;7.60;;;-1.20;1.00;;;;;;4974232;28;20464;-75
2021/01/31 03:25:40;;;;;;;11.73;7.37;;;-1.20;1.00;;;;;;5001768;28;20455;-75
2021/01/31 03:28:06;;;;;;;14.17;8.17;;;-1.10;1.00;;;;;;4991638;28;20479;-75
2021/01/31 03:30:32;;;;;;;11.77;7.63;;;-1.10;1.00;;;;;;4989482;28;20443;-75
2021/01/31 03:33:03;;;;;;;11.57;8.20;;;-1.10;1.00;;;;;;4990591;28;20459;-75
2021/01/31 03:35:34;;;;;;;12.30;7.90;;;-1.20;1.00;;;;;;4992344;28;20606;-76
2021/01/31 03:38:13;;;;;;;10.30;7.40;;;-1.10;1.00;;;;;;4991898;28;20467;-75
2021/01/31 03:40:42;;;;;;;11.10;7.80;;;-1.10;1.00;;;;;;4993380;28;20490;-75
2021/01/31 03:43:08;;;;;;;13.83;8.53;;;-1.10;1.00;;;;;;4989122;28;21116;-75
2021/01/31 03:45:41;;;;;;;11.10;7.27;;;-1.10;1.00;;;;;;4989657;28;20747;-75
2021/01/31 03:48:14;;;;;;;12.50;8.57;;;-1.00;1.00;;;;;;4988601;28;20235;-75
2021/01/31 03:50:41;;;;;;;10.93;6.83;;;-1.10;1.00;;;;;;4991116;28;21032;-75
2021/01/31 03:53:08;;;;;;;10.97;8.37;;;-1.10;1.00;;;;;;4989076;28;20527;-75
2021/01/31 03:55:34;;;;;;;12.90;7.90;;;-1.10;1.00;;;;;;4992617;28;21895;-75
2021/01/31 03:58:05;;;;;;;11.40;8.50;;;-1.10;1.00;;;;;;4975494;28;20628;-75
2021/01/31 04:00:34;;;;;;;12.43;7.70;;;-1.20;1.00;;;;;;4989788;28;20496;-75
2021/01/31 04:03:08;;;;;;;16.70;7.17;;;-1.20;1.00;;;;;;4987583;28;20475;-75
2021/01/31 04:05:35;;;;;;;13.40;7.73;;;-1.10;1.00;;;;;;4987310;28;21019;-75
2021/01/31 04:08:06;;;;;;;9.20;7.00;;;-1.10;1.00;;;;;;4990806;28;20493;-75
2021/01/31 04:10:32;;;;;;;12.20;7.83;;;-1.20;1.00;;;;;;4986169;28;20453;-74
2021/01/31 04:13:00;;;;;;;12.83;7.20;;;-1.20;1.00;;;;;;4969305;28;20459;-75
2021/01/31 04:15:36;;;;;;;12.23;8.90;;;-1.10;1.00;;;;;;4986259;28;20208;-74
2021/01/31 04:18:04;;;;;;;10.93;7.03;;;-1.20;1.00;;;;;;4990884;28;20992;-75
2021/01/31 04:20:30;;;;;;;12.93;7.87;;;-1.10;1.00;;;;;;4994070;28;21324;-75
2021/01/31 04:22:56;;;;;;;12.00;7.50;;;-1.10;1.00;;;;;;4989522;28;20878;-74
2021/01/31 04:25:22;;;;;;;12.40;7.90;;;-1.20;1.00;;;;;;4991854;28;20533;-75
2021/01/31 04:27:47;;;;;;;13.13;8.40;;;-1.20;1.00;;;;;;4987175;28;20252;-75
2021/01/31 04:30:13;;;;;;;14.83;8.30;;;-1.20;1.00;;;;;;4992035;28;20299;-75
2021/01/31 04:32:39;;;;;;;21.20;8.20;;;-1.20;1.00;;;;;;4986419;28;20306;-74
2021/01/31 04:35:08;;;;;;;10.43;8.00;;;-1.10;1.00;;;;;;4991355;28;20462;-75
2021/01/31 04:37:34;;;;;;;14.93;8.87;;;-1.20;1.00;;;;;;4988340;28;20706;-75
2021/01/31 04:40:00;;;;;;;11.83;8.60;;;-1.30;1.00;;;;;;4990308;28;20446;-75
2021/01/31 04:42:26;;;;;;;10.67;7.87;;;-1.30;1.00;;;;;;4990857;28;20445;-75
2021/01/31 04:44:52;;;;;;;10.47;7.17;;;-1.30;1.00;;;;;;4973089;28;21468;-76
2021/01/31 04:47:29;;;;;;;11.67;8.07;;;-1.30;1.00;;;;;;4989443;28;20467;-76
2021/01/31 04:50:06;;;;;;;12.53;8.50;;;-1.40;1.00;;;;;;4989991;28;20533;-75
2021/01/31 04:52:46;;;;;;;13.20;8.50;;;-1.40;1.00;;;;;;4993399;28;20906;-75
2021/01/31 04:55:39;;;;;;;9.70;7.37;;;-1.40;1.00;;;;;;4993193;28;20444;-74
2021/01/31 04:58:15;;;;;;;12.37;7.67;;;-1.30;1.00;;;;;;4992300;28;20593;-75
2021/01/31 05:00:54;;;;;;;16.53;8.70;;;-1.40;1.00;;;;;;4990092;28;20447;-75
2021/01/31 05:03:22;;;;;;;14.47;9.43;;;-1.30;1.00;;;;;;4991394;28;20554;-75
2021/01/31 05:06:10;;;;;;;12.40;8.07;;;-1.30;1.00;;;;;;4995755;28;20447;-75
2021/01/31 05:08:36;;;;;;;14.50;8.47;;;-1.30;1.00;;;;;;4991764;28;20516;-75
2021/01/31 05:11:11;;;;;;;14.30;8.70;;;-1.30;1.00;;;;;;4992075;28;20896;-75
2021/01/31 05:14:27;;;;;;;12.57;8.20;;;-1.30;1.00;;;;;;4972576;28;20188;-75
2021/01/31 05:16:52;;;;;;;11.00;7.03;;;-1.20;1.00;;;;;;4983066;28;20607;-75
2021/01/31 05:19:22;;;;;;;11.37;7.37;;;-1.20;1.00;;;;;;4992458;28;20460;-74
2021/01/31 05:21:48;;;;;;;9.33;7.03;;;-1.20;1.00;;;;;;4987322;28;20219;-75
2021/01/31 05:24:18;;;;;;;11.73;6.83;;;-1.20;1.00;;;;;;4992563;28;20467;-76
2021/01/31 05:26:52;;;;;;;10.87;7.73;;;-1.10;1.00;;;;;;4997132;28;20675;-76
2021/01/31 05:29:24;;;;;;;12.90;7.57;;;-1.20;1.00;;;;;;4993763;28;20615;-76
2021/01/31 05:32:10;;;;;;;11.30;7.10;;;-1.20;1.00;;;;;;4993686;28;21059;-75
2021/01/31 05:34:41;;;;;;;12.80;6.73;;;-1.20;1.00;;;;;;4995448;28;20452;-75
2021/01/31 05:37:16;;;;;;;10.70;7.57;;;-1.20;1.00;;;;;;4993032;28;21053;-76
2021/01/31 05:39:58;;;;;;;13.13;7.57;;;-1.30;1.00;;;;;;4974878;28;20450;-75
2021/01/31 05:42:33;;;;;;;11.53;7.70;;;-1.30;1.00;;;;;;4995861;28;20981;-75
2021/01/31 05:45:20;;;;;;;10.70;7.23;;;-1.40;1.00;;;;;;4997191;28;21245;-75
2021/01/31 05:47:49;;;;;;;12.90;8.00;;;-1.40;1.00;;;;;;4994398;28;22609;-75
2021/01/31 05:50:17;;;;;;;15.50;8.13;;;-1.30;1.00;;;;;;4991298;28;20539;-75
2021/01/31 05:52:43;;;;;;;13.10;7.30;;;-1.30;1.00;;;;;;4990154;28;20959;-75
2021/01/31 05:55:31;;;;;;;13.60;7.67;;;-1.40;1.00;;;;;;4994841;28;21154;-75
2021/01/31 05:58:32;;;;;;;10.57;7.47;;;-1.50;1.00;;;;;;4995323;28;20272;-75
2021/01/31 06:01:09;;;;;;;12.40;7.63;;;-1.50;1.00;;;;;;4912079;28;20498;-75
2021/01/31 06:03:36;;;;;;;10.73;7.87;;;-1.60;1.00;;;;;;4978921;28;20884;-74
2021/01/31 06:06:12;;;;;;;16.43;8.00;;;-1.50;1.00;;;;;;4989123;28;20588;-75
2021/01/31 06:08:40;;;;;;;12.03;7.83;;;-1.50;1.00;;;;;;4986271;28;21708;-74
2021/01/31 06:11:23;;;;;;;14.17;8.00;;;-1.70;1.00;;;;;;4985814;28;20490;-74
2021/01/31 06:14:02;;;;;;;13.60;8.47;;;-1.70;1.00;;;;;;4990750;28;20474;-74
2021/01/31 06:16:29;;;;;;;15.37;7.73;;;-1.70;1.00;;;;;;4989203;28;20543;-74
2021/01/31 06:19:00;;;;;;;15.13;8.13;;;-1.70;1.00;;;;;;4987242;28;20467;-75
2021/01/31 06:21:41;;;;;;;12.77;8.00;;;-1.60;1.00;;;;;;4971399;28;20492;-75
2021/01/31 06:24:25;;;;;;;11.47;7.70;;;-1.70;1.00;;;;;;4990843;28;20964;-74
2021/01/31 06:26:52;;;;;;;11.37;8.10;;;-1.60;1.00;;;;;;4990262;28;20999;-75
2021/01/31 06:29:37;;;;;;;10.97;6.73;;;-1.60;1.00;;;;;;4988453;28;20506;-74
2021/01/31 06:32:26;;;;;;;11.70;7.37;;;-1.70;1.00;;;;;;4981904;28;21030;-76
2021/01/31 06:34:56;;;;;;;13.57;8.63;;;-1.60;1.00;;;;;;4991288;28;21894;-75
2021/01/31 06:37:35;;;;;;;13.43;8.03;;;-1.70;1.00;;;;;;4987362;28;21445;-75
2021/01/31 06:40:18;;;;;;;14.17;8.83;;;-1.70;1.00;;;;;;4990091;28;20479;-75
2021/01/31 06:42:54;;;;;;;12.97;8.60;;;-1.70;1.00;;;;;;4987575;28;20439;-75
2021/01/31 06:45:44;;;;;;;13.17;8.40;;;-1.70;1.00;;;;;;4990764;28;20499;-75
2021/01/31 06:48:40;;;;;;;14.50;8.83;;;-1.70;1.00;;;;;;4969537;28;20476;-75
2021/01/31 06:51:13;;;;;;;14.07;8.10;;;-1.70;1.00;;;;;;4988323;28;20449;-75
2021/01/31 06:53:46;;;;;;;14.13;8.93;;;-1.70;1.00;;;;;;4987149;28;20460;-75
2021/01/31 06:56:40;;;;;;;16.37;9.10;;;-1.80;1.00;;;;;;4988963;28;20494;-75
2021/01/31 06:59:37;;;;;;;15.40;9.00;;;-1.80;1.00;;;;;;4991092;28;21014;-75
2021/01/31 07:02:22;;;;;;;12.13;8.17;;;-1.80;1.00;;;;;;4986987;28;21173;-75
2021/01/31 07:05:06;;;;;;;14.47;8.37;;;-1.70;1.00;;;;;;4990392;28;20457;-75
2021/01/31 07:07:47;;;;;;;14.80;8.80;;;-1.80;1.00;;;;;;4984536;28;20478;-75
2021/01/31 07:10:34;;;;;;;14.40;8.87;;;-1.70;1.00;;;;;;4987623;28;21026;-75
2021/01/31 07:13:02;;;;;;;15.13;8.97;;;-1.60;1.00;;;;;;4990201;28;20480;-75
2021/01/31 07:15:41;;;;;;;13.90;8.77;;;-1.60;1.00;;;;;;4981277;28;20517;-77
2021/01/31 07:18:10;;;;;;;14.13;8.83;;;-1.60;1.00;;;;;;4988482;28;21470;-75
2021/01/31 07:20:44;;;;;;;12.03;8.23;;;-1.60;1.00;;;;;;4985120;28;20463;-75
2021/01/31 07:23:27;;;;;;;14.30;8.67;;;-1.60;1.00;;;;;;4986934;28;20463;-75
2021/01/31 07:26:05;;;;;;;10.97;7.67;;;-1.70;1.00;;;;;;5009791;28;20537;-74
2021/01/31 07:28:36;;;;;;;14.20;8.53;;;-1.70;1.00;;;;;;4995189;28;20478;-75
2021/01/31 07:31:08;;;;;;;15.00;9.07;;;-1.50;1.00;;;;;;4968917;28;20487;-75
2021/01/31 07:33:46;;;;;;;13.00;8.80;;;-1.60;1.00;;;;;;4986620;28;20442;-74
2021/01/31 07:36:20;;;;;;;19.37;9.23;;;-1.50;1.00;;;;;;4988809;28;20973;-74
2021/01/31 07:38:51;;;;;;;13.43;8.77;;;-1.70;1.00;;;;;;4985276;28;21043;-75
2021/01/31 07:41:18;;;;;;;14.17;8.90;;;-1.70;1.00;;;;;;4990199;28;20613;-74
2021/01/31 07:43:51;;;;;;;12.10;8.00;;;-1.70;1.00;;;;;;4984634;28;20488;-75
2021/01/31 07:46:18;;;;;;;11.97;8.00;;;-1.70;1.00;;;;;;4993482;28;20441;-74
2021/01/31 07:48:43;;;;;;;14.90;8.93;;;-1.60;1.00;;;;;;4992151;28;20729;-75
2021/01/31 07:51:10;;;;;;;14.37;7.97;;;-1.60;1.00;;;;;;4999372;28;20965;-75
2021/01/31 07:53:40;;;;;;;15.73;8.57;;;-1.70;1.00;;;;;;4979942;28;20355;-75
2021/01/31 07:56:31;;;;;;;14.50;8.93;;;-1.60;1.00;;;;;;4991155;28;20448;-75
2021/01/31 07:58:58;;;;;;;14.93;9.73;;;-1.60;1.00;;;;;;4987892;28;20649;-75
2021/01/31 08:01:44;;;;;;;12.20;8.27;;;-1.50;1.00;;;;;;4993922;28;20455;-75
2021/01/31 08:04:16;;;;;;;13.40;8.73;;;-1.50;1.00;;;;;;4986813;28;20464;-75
2021/01/31 08:06:47;;;;;;;15.10;8.67;;;-1.50;1.00;;;;;;4988778;28;20803;-75
2021/01/31 08:09:25;;;;;;;12.93;8.03;;;-1.50;1.00;;;;;;4988298;28;21193;-75
2021/01/31 08:11:57;;;;;;;14.20;8.30;;;-1.40;1.00;;;;;;4987061;28;20451;-75
2021/01/31 08:15:00;;;;;;;15.87;8.50;;;-1.50;1.00;;;;;;4985671;28;20493;-77
2021/01/31 08:17:42;;;;;;;16.73;9.63;;;-1.50;1.00;;;;;;4987177;28;20826;-75
2021/01/31 08:20:23;;;;;;;13.70;9.40;;;-1.50;1.00;;;;;;4970911;28;20968;-74
2021/01/31 08:22:49;;;;;;;15.07;9.33;;;-1.40;1.00;;;;;;4986692;28;20479;-75
2021/01/31 08:25:15;;;;;;;14.63;9.20;;;-1.40;1.00;;;;;;4987942;28;20466;-75
2021/01/31 08:27:40;;;;;;;14.37;8.80;;;-1.30;1.00;;;;;;4996275;28;21866;-75
2021/01/31 08:30:22;;;;;;;14.80;9.90;;;-1.30;1.00;;;;;;4997655;28;20237;-75
2021/01/31 08:33:03;;;;;;;14.93;9.10;;;-1.30;1.00;;;;;;4996168;28;20183;-75
2021/01/31 08:35:41;;;;;;;16.33;9.40;;;-1.20;1.00;;;;;;4998449;28;20444;-75
2021/01/31 08:38:16;;;;;;;13.60;9.50;;;-1.20;1.00;;;;;;4996247;28;20471;-75
2021/01/31 08:41:03;;;;;;;15.70;10.10;;;-1.20;1.00;;;;;;4994520;28;20509;-74
2021/01/31 08:43:32;;;;;;;16.00;9.97;;;-1.10;1.00;;;;;;4978605;28;20813;-75
2021/01/31 08:46:17;;;;;;;14.40;9.07;;;-0.90;1.00;;;;;;4999385;28;21207;-75
2021/01/31 08:48:57;;;;;;;14.57;8.93;;;-1.00;1.00;;;;;;4996374;28;21271;-76
2021/01/31 08:51:37;;;;;;;12.93;8.63;;;-1.00;1.00;;;;;;4993192;28;20440;-75
2021/01/31 08:54:10;;;;;;;17.80;9.70;;;-0.90;1.00;;;;;;4993599;28;20467;-75
2021/01/31 08:56:49;;;;;;;15.77;9.90;;;-0.90;1.00;;;;;;4995210;28;21012;-76
2021/01/31 08:59:30;;;;;;;14.20;8.93;;;-0.90;1.00;;;;;;4975902;28;20445;-75
2021/01/31 09:02:14;;;;;;;13.43;8.50;;;-0.90;1.00;;;;;;4996234;28;21221;-75
2021/01/31 09:05:14;;;;;;;14.17;9.70;;;-0.70;1.00;;;;;;4995507;28;20511;-75
2021/01/31 09:07:45;;;;;;;12.30;8.80;;;-0.70;1.00;;;;;;4992473;28;21616;-75
2021/01/31 09:10:36;;;;;;;13.33;8.67;;;-0.60;1.00;;;;;;4991586;28;20590;-75
2021/01/31 09:13:11;;;;;;;15.40;10.00;;;-0.60;1.00;;;;;;4995249;28;20450;-76
2021/01/31 09:15:37;;;;;;;15.03;9.80;;;-0.60;1.00;;;;;;4988958;28;20440;-76
2021/01/31 09:18:07;;;;;;;15.23;9.13;;;-0.50;1.00;;;;;;4996371;28;20478;-76
2021/01/31 09:20:33;;;;;;;14.67;8.93;;;-0.50;1.00;;;;;;4997998;28;20190;-75
2021/01/31 09:23:05;;;;;;;14.60;9.97;;;-0.50;1.00;;;;;;4973860;28;20460;-76
2021/01/31 09:25:38;;;;;;;14.20;9.20;;;-0.40;1.00;;;;;;4979506;28;20464;-75
2021/01/31 09:28:11;;;;;;;15.20;9.60;;;-0.30;1.00;;;;;;4996379;28;20478;-76
2021/01/31 09:30:39;;;;;;;14.77;9.60;;;-0.20;1.00;;;;;;4993872;28;20569;-76
2021/01/31 09:33:14;;;;;;;14.80;9.53;;;-0.20;1.00;;;;;;4994303;28;20810;-75
2021/01/31 09:35:40;;;;;;;17.37;9.47;;;-0.10;1.00;;;;;;4995191;28;20526;-76
2021/01/31 09:38:22;;;;;;;16.20;10.57;;;0.00;1.00;;;;;;4994657;28;20449;-75
2021/01/31 09:40:50;;;;;;;14.30;8.77;;;0.00;1.00;;;;;;4991103;28;20449;-76
2021/01/31 09:43:25;;;;;;;20.13;10.90;;;0.10;1.00;;;;;;4988011;28;20808;-76
2021/01/31 09:45:57;;;;;;;12.30;9.10;;;0.00;1.00;;;;;;4991043;28;20448;-76
2021/01/31 09:48:26;;;;;;;21.03;10.87;;;0.10;1.00;;;;;;4997101;28;21185;-76
2021/01/31 09:51:21;;;;;;;13.97;9.30;;;0.10;1.00;;;;;;4997254;28;22055;-75
2021/01/31 09:53:47;;;;;;;12.23;8.67;;;0.30;1.00;;;;;;4998242;28;20600;-76
2021/01/31 09:56:35;;;;;;;15.97;9.37;;;0.30;1.00;;;;;;4997996;28;20476;-75
2021/01/31 09:59:01;;;;;;;17.00;9.40;;;0.30;1.00;;;;;;4992031;28;21977;-76
2021/01/31 10:01:29;;;;;;;15.13;9.40;;;0.40;1.00;;;;;;4995441;28;21998;-75
2021/01/31 10:04:01;;;;;;;17.03;10.40;;;0.50;1.00;;;;;;4975172;28;20454;-76
2021/01/31 10:06:39;;;;;;;14.50;10.50;;;0.50;1.00;;;;;;4990564;28;21097;-76
2021/01/31 10:09:05;;;;;;;14.60;10.20;;;0.50;1.00;;;;;;5004056;28;20542;-75
2021/01/31 10:11:38;;;;;;;15.17;10.67;;;0.60;1.00;;;;;;4982650;28;20492;-76
2021/01/31 10:14:09;;;;;;;16.70;10.97;;;0.60;1.00;;;;;;4993010;28;20551;-76
2021/01/31 10:16:37;;;;;;;15.00;9.00;;;0.60;1.00;;;;;;4990227;28;20461;-75
2021/01/31 10:19:10;;;;;;;14.13;9.57;;;0.60;1.00;;;;;;4983226;28;20535;-76
2021/01/31 10:21:39;;;;;;;14.07;9.10;;;0.80;1.00;;;;;;4975077;28;20938;-76
2021/01/31 10:24:27;;;;;;;15.60;9.97;;;0.80;1.00;;;;;;4985124;28;20476;-75
2021/01/31 10:27:11;;;;;;;14.27;8.70;;;0.90;1.00;;;;;;4985336;28;20864;-75
2021/01/31 10:29:38;;;;;;;15.27;9.43;;;1.00;1.00;;;;;;4995679;28;20512;-75
2021/01/31 10:32:19;;;;;;;14.57;8.90;;;1.00;1.00;;;;;;4998417;28;20482;-76
2021/01/31 10:34:44;;;;;;;15.80;8.80;;;1.00;1.00;;;;;;4998873;28;20488;-75
2021/01/31 10:37:12;;;;;;;15.33;8.33;;;1.10;1.00;;;;;;4994665;28;20465;-75
2021/01/31 10:39:37;;;;;;;15.50;8.40;;;1.10;1.00;;;;;;4997378;28;20409;-74
2021/01/31 10:42:03;;;;;;;23.00;9.60;;;1.10;1.00;;;;;;4998425;28;20495;-76
2021/01/31 10:44:29;;;;;;;15.83;9.40;;;1.20;1.00;;;;;;5000563;28;20641;-76
2021/01/31 10:46:55;;;;;;;11.10;8.10;;;1.20;1.00;;;;;;4999643;28;20219;-76
2021/01/31 10:49:22;;;;;;;10.30;6.97;;;1.30;1.00;;;;;;4998214;28;20193;-75
2021/01/31 10:51:48;;;;;;;8.57;6.27;;;1.30;1.00;;;;;;5001226;28;20450;-75
2021/01/31 10:54:16;;;;;;;12.30;6.83;;;1.40;1.00;;;;;;4997310;28;20536;-75
2021/01/31 10:56:42;;;;;;;9.80;7.40;;;1.50;1.00;;;;;;4997715;28;20544;-75
2021/01/31 10:59:07;;;;;;;11.70;7.43;;;1.40;1.00;;;;;;4998980;28;20464;-75
2021/01/31 11:01:33;;;;;;;10.63;7.47;;;1.40;1.00;;;;;;4998306;28;20464;-74
2021/01/31 11:03:59;;;;;;;10.37;6.93;;;1.40;1.00;;;;;;4980554;28;20445;-75
2021/01/31 11:06:27;;;;;;;11.33;6.83;;;1.30;1.00;;;;;;4999603;28;20489;-75
2021/01/31 11:08:53;;;;;;;10.03;6.40;;;1.30;1.00;;;;;;4997417;28;20222;-75
2021/01/31 11:11:20;;;;;;;10.80;7.07;;;1.30;1.00;;;;;;4996782;28;20472;-75
2021/01/31 11:13:47;;;;;;;9.60;6.00;;;1.40;1.00;;;;;;4993640;28;20768;-75
2021/01/31 11:16:12;;;;;;;9.27;6.27;;;1.40;1.00;;;;;;4994582;28;20540;-75
2021/01/31 11:18:38;;;;;;;9.77;6.43;;;1.40;1.00;;;;;;4998395;28;20935;-76
2021/01/31 11:21:05;;;;;;;10.63;7.60;;;1.40;1.00;;;;;;4992083;28;20374;-75
2021/01/31 11:23:30;;;;;;;10.73;6.70;;;1.50;1.00;;;;;;4992991;28;20689;-75
2021/01/31 11:25:56;;;;;;;11.10;6.80;;;1.50;1.00;;;;;;4995380;28;20460;-76
2021/01/31 11:28:22;;;;;;;11.80;6.90;;;1.50;1.00;;;;;;4997837;28;20599;-75
2021/01/31 11:30:48;;;;;;;9.10;6.33;;;1.60;1.00;;;;;;4989552;28;20192;-75
2021/01/31 11:33:15;;;;;;;8.07;6.10;;;1.60;1.00;;;;;;4994942;28;20859;-75
2021/01/31 11:35:41;;;;;;;8.33;6.20;;;1.70;1.00;;;;;;4994538;28;20425;-75
2021/01/31 11:38:07;;;;;;;10.10;6.87;;;1.70;1.00;;;;;;4993476;28;20493;-75
2021/01/31 11:40:33;;;;;;;9.67;7.00;;;1.80;1.00;;;;;;4996013;28;20519;-75
2021/01/31 11:42:59;;;;;;;10.80;6.70;;;1.90;1.00;;;;;;4995103;28;20556;-75
2021/01/31 11:45:27;;;;;;;10.13;6.57;;;1.80;1.00;;;;;;4988403;28;20505;-75
2021/01/31 11:47:53;;;;;;;11.43;7.90;;;1.90;1.00;;;;;;4971969;28;20803;-75
2021/01/31 11:50:22;;;;;;;9.90;7.07;;;1.90;1.00;;;;;;4994299;28;21051;-74
2021/01/31 11:52:48;;;;;;;13.47;7.43;;;2.00;1.00;;;;;;4993881;28;20455;-74
2021/01/31 11:55:14;;;;;;;9.57;6.23;;;2.10;1.00;;;;;;4986546;28;20470;-74
2021/01/31 11:57:40;;;;;;;8.23;6.07;;;2.20;1.00;;;;;;4993626;28;20454;-75
2021/01/31 12:00:09;;;;;;;11.53;6.20;;;2.20;1.00;;;;;;4965593;28;21556;-75
2021/01/31 12:02:38;;;;;;;9.83;6.70;;;2.10;1.00;;;;;;4964492;28;20286;-75
2021/01/31 12:05:05;;;;;;;8.97;7.07;;;2.20;1.00;;;;;;4989676;28;20461;-75
2021/01/31 12:07:31;;;;;;;10.27;6.67;;;2.20;1.00;;;;;;4986051;28;20601;-75
2021/01/31 12:09:56;;;;;;;9.30;6.60;;;2.30;1.00;;;;;;4988705;28;20474;-75
2021/01/31 12:12:22;;;;;;;7.73;5.87;;;2.30;1.00;;;;;;4979390;28;20241;-75
2021/01/31 12:14:49;;;;;;;9.73;5.97;;;2.30;1.00;;;;;;4993522;28;20448;-75
2021/01/31 12:17:18;;;;;;;10.90;6.80;;;2.30;1.00;;;;;;4989780;28;20290;-75
2021/01/31 12:19:44;;;;;;;10.97;7.27;;;2.30;1.00;;;;;;4997943;28;20512;-75
2021/01/31 12:22:09;;;;;;;11.00;6.80;;;2.30;1.00;;;;;;4991411;28;20526;-75
2021/01/31 12:24:35;;;;;;;13.50;7.23;;;2.30;1.00;;;;;;4991217;28;20203;-74
2021/01/31 12:27:01;;;;;;;9.60;6.63;;;2.40;1.00;;;;;;4995740;28;20187;-75
2021/01/31 12:29:26;;;;;;;9.00;6.37;;;2.30;1.00;;;;;;4994956;28;20916;-75
2021/01/31 12:31:53;;;;;;;8.77;6.30;;;2.30;1.00;;;;;;5000375;28;21262;-75
2021/01/31 12:34:19;;;;;;;8.83;5.73;;;2.40;1.00;;;;;;4991926;28;20191;-75
2021/01/31 12:36:44;;;;;;;10.90;6.73;;;2.50;1.00;;;;;;4986518;28;20492;-74
2021/01/31 12:39:10;;;;;;;11.10;5.90;;;2.50;1.00;;;;;;4985169;28;20223;-75
2021/01/31 12:41:36;;;;;;;7.13;5.50;;;2.60;1.00;;;;;;4983703;28;20326;-75
2021/01/31 12:44:02;;;;;;;10.13;6.70;;;2.60;1.00;;;;;;4982556;28;20881;-75
2021/01/31 12:46:28;;;;;;;14.30;7.13;;;2.60;1.00;;;;;;4985648;28;20838;-75
2021/01/31 12:48:54;;;;;;;9.30;6.23;;;2.70;1.00;;;;;;4991941;28;20585;-75
2021/01/31 12:51:20;;;;;;;13.50;7.90;;;2.70;1.00;;;;;;4991706;28;20458;-75
2021/01/31 12:53:46;;;;;;;11.87;6.47;;;2.70;1.00;;;;;;4986565;28;20684;-75
2021/01/31 12:56:12;;;;;;;10.43;7.37;;;2.70;1.00;;;;;;4981685;28;20504;-75
2021/01/31 12:58:39;;;;;;;12.50;7.20;;;2.70;1.00;;;;;;4989524;28;20443;-74
2021/01/31 13:01:05;;;;;;;9.40;6.50;;;2.70;1.00;;;;;;4988030;28;20318;-75
2021/01/31 13:03:30;;;;;;;10.00;6.47;;;2.70;1.00;;;;;;4982666;28;20464;-75
2021/01/31 13:05:56;;;;;;;9.93;6.57;;;2.70;1.00;;;;;;4971841;28;20188;-75
2021/01/31 13:08:22;;;;;;;8.93;6.23;;;2.60;1.00;;;;;;4985975;28;20539;-75
2021/01/31 13:10:49;;;;;;;11.67;6.53;;;2.70;1.00;;;;;;4981376;28;21219;-75
2021/01/31 13:13:16;;;;;;;8.27;5.80;;;2.80;1.00;;;;;;4989026;28;20256;-75
2021/01/31 13:15:43;;;;;;;16.27;6.90;;;2.80;1.00;;;;;;4995423;28;20447;-75